createdAt,value
2017-11-24T00:01:58.217Z,3.83
2017-11-24T00:04:27.295Z,4.03
2017-11-24T00:06:56.151Z,3.93
2017-11-24T00:09:25.951Z,4.10
2017-11-24T00:11:54.798Z,3.63
2017-11-24T00:14:23.643Z,4.07
2017-11-24T00:16:52.501Z,4.30
2017-11-24T00:19:22.539Z,4.03
2017-11-24T00:21:52.104Z,3.93
2017-11-24T00:24:21.043Z,4.77
2017-11-24T00:26:50.900Z,4.37
2017-11-24T00:29:19.775Z,4.33
2017-11-24T00:31:49.253Z,4.00
2017-11-24T00:34:19.529Z,4.23
2017-11-24T00:36:48.407Z,4.20
2017-11-24T00:39:17.251Z,4.57
2017-11-24T00:41:46.097Z,5.73
2017-11-24T00:44:14.968Z,4.53
2017-11-24T00:46:43.810Z,4.30
2017-11-24T00:49:12.648Z,4.53
2017-11-24T00:51:42.437Z,4.57
2017-11-24T00:54:11.281Z,4.83
2017-11-24T00:56:40.113Z,5.20
2017-11-24T00:59:08.965Z,5.67
2017-11-24T01:01:37.828Z,6.57
2017-11-24T01:04:06.681Z,7.13
2017-11-24T01:06:35.561Z,5.67
2017-11-24T01:09:04.462Z,5.57
2017-11-24T01:11:33.961Z,4.47
2017-11-24T01:14:02.826Z,4.73
2017-11-24T01:16:31.674Z,5.10
2017-11-24T01:19:00.564Z,4.17
2017-11-24T01:21:29.453Z,4.20
2017-11-24T01:23:58.330Z,4.23
2017-11-24T01:26:27.201Z,5.03
2017-11-24T01:28:56.057Z,4.70
2017-11-24T01:31:24.955Z,4.10
2017-11-24T01:33:54.569Z,4.53
2017-11-24T01:36:23.515Z,4.60
2017-11-24T01:38:52.357Z,4.90
2017-11-24T01:41:22.209Z,5.03
2017-11-24T01:43:51.087Z,5.80
2017-11-24T01:46:19.947Z,6.37
2017-11-24T01:48:48.811Z,5.43
2017-11-24T01:51:17.719Z,4.07
2017-11-24T01:53:46.563Z,3.70
2017-11-24T01:56:15.422Z,3.63
2017-11-24T01:58:44.309Z,3.90
2017-11-24T02:01:13.157Z,4.23
2017-11-24T02:03:41.993Z,4.23
2017-11-24T02:06:10.857Z,4.37
2017-11-24T02:08:39.697Z,4.13
2017-11-24T02:11:09.465Z,3.90
2017-11-24T02:13:38.330Z,4.03
2017-11-24T02:16:07.897Z,3.97
2017-11-24T02:18:36.751Z,3.60
2017-11-24T02:21:05.608Z,3.47
2017-11-24T02:23:34.457Z,3.67
2017-11-24T02:26:03.299Z,4.43
2017-11-24T02:28:32.165Z,4.27
2017-11-24T02:31:01.005Z,3.80
2017-11-24T02:33:29.843Z,4.20
2017-11-24T02:35:58.734Z,3.40
2017-11-24T02:38:27.584Z,3.73
2017-11-24T02:40:56.461Z,3.47
2017-11-24T02:43:26.063Z,2.90
2017-11-24T02:45:54.898Z,3.47
2017-11-24T02:48:23.764Z,3.87
2017-11-24T02:50:52.637Z,3.20
2017-11-24T02:53:21.486Z,3.23
2017-11-24T02:55:51.006Z,3.00
2017-11-24T02:58:20.885Z,3.37
2017-11-24T03:00:49.973Z,2.80
2017-11-24T03:03:18.821Z,2.93
2017-11-24T03:05:47.674Z,2.43
2017-11-24T03:08:16.543Z,3.10
2017-11-24T03:10:45.378Z,3.13
2017-11-24T03:13:14.246Z,2.67
2017-11-24T03:15:43.099Z,3.57
2017-11-24T03:18:11.941Z,3.10
2017-11-24T03:20:40.807Z,3.33
2017-11-24T03:23:09.645Z,3.10
2017-11-24T03:25:39.275Z,3.10
2017-11-24T03:28:08.729Z,3.10
2017-11-24T03:30:38.137Z,3.57
2017-11-24T03:33:07.230Z,3.03
2017-11-24T03:35:36.117Z,3.83
2017-11-24T03:38:04.965Z,3.70
2017-11-24T03:40:33.799Z,3.93
2017-11-24T03:43:02.691Z,3.97
2017-11-24T03:45:31.635Z,4.00
2017-11-24T03:48:00.497Z,4.17
2017-11-24T03:50:29.356Z,4.20
2017-11-24T03:52:58.211Z,3.73
2017-11-24T03:55:27.045Z,3.80
2017-11-24T03:57:55.909Z,3.77
2017-11-24T04:00:24.767Z,3.70
2017-11-24T04:02:53.618Z,3.20
2017-11-24T04:05:22.489Z,3.63
2017-11-24T04:07:51.349Z,3.23
2017-11-24T04:10:20.216Z,3.53
2017-11-24T04:12:49.101Z,3.77
2017-11-24T04:15:18.410Z,4.37
2017-11-24T04:17:47.253Z,4.73
2017-11-24T04:20:16.182Z,4.57
2017-11-24T04:22:45.021Z,5.63
2017-11-24T04:25:13.865Z,6.10
2017-11-24T04:27:43.352Z,6.53
2017-11-24T04:30:12.219Z,6.83
2017-11-24T04:32:41.057Z,7.47
2017-11-24T04:35:09.914Z,7.87
2017-11-24T04:37:38.765Z,7.40
2017-11-24T04:40:07.632Z,6.80
2017-11-24T04:42:37.357Z,6.70
2017-11-24T04:45:06.831Z,6.90
2017-11-24T04:47:35.669Z,5.23
2017-11-24T04:50:04.542Z,6.00
2017-11-24T04:52:33.402Z,6.50
2017-11-24T04:55:02.261Z,4.53
2017-11-24T04:57:31.133Z,5.53
2017-11-24T05:00:00.221Z,6.57
2017-11-24T05:02:29.373Z,6.10
2017-11-24T05:04:58.232Z,4.37
2017-11-24T05:07:27.079Z,6.83
2017-11-24T05:09:55.936Z,7.03
2017-11-24T05:12:24.782Z,7.63
2017-11-24T05:14:53.631Z,7.80
2017-11-24T05:17:22.481Z,7.93
2017-11-24T05:19:51.361Z,8.60
2017-11-24T05:22:20.223Z,6.63
2017-11-24T05:24:49.068Z,6.17
2017-11-24T05:27:17.934Z,8.10
2017-11-24T05:29:47.572Z,8.30
2017-11-24T05:32:16.445Z,7.60
2017-11-24T05:34:45.586Z,8.00
2017-11-24T05:37:14.932Z,7.17
2017-11-24T05:39:43.851Z,8.13
2017-11-24T05:42:12.788Z,5.80
2017-11-24T05:44:42.466Z,8.10
2017-11-24T05:47:12.959Z,7.53
2017-11-24T05:49:42.212Z,7.77
2017-11-24T05:52:11.729Z,7.20
2017-11-24T05:54:40.685Z,8.13
2017-11-24T05:57:09.551Z,7.77
2017-11-24T05:59:38.393Z,7.93
2017-11-24T06:02:07.240Z,6.57
2017-11-24T06:04:36.117Z,7.37
2017-11-24T06:07:04.954Z,7.20
2017-11-24T06:09:34.958Z,8.00
2017-11-24T06:12:04.030Z,8.10
2017-11-24T06:14:32.870Z,7.50
2017-11-24T06:17:05.875Z,8.37
2017-11-24T06:19:35.809Z,8.23
2017-11-24T06:22:04.887Z,7.40
2017-11-24T06:24:33.734Z,8.40
2017-11-24T06:27:02.631Z,8.90
2017-11-24T06:29:31.477Z,9.50
2017-11-24T06:32:00.312Z,9.33
2017-11-24T06:34:29.180Z,5.33
2017-11-24T06:36:58.019Z,8.67
2017-11-24T06:39:26.951Z,9.00
2017-11-24T06:41:55.960Z,8.10
2017-11-24T06:44:24.811Z,7.90
2017-11-24T06:46:54.095Z,7.67
2017-11-24T06:49:23.018Z,10.50
2017-11-24T06:51:51.874Z,9.73
2017-11-24T06:54:20.822Z,9.53
2017-11-24T06:56:49.683Z,9.40
2017-11-24T06:59:18.529Z,6.33
2017-11-24T07:01:48.115Z,8.57
2017-11-24T07:04:18.012Z,10.27
2017-11-24T07:06:47.300Z,6.53
2017-11-24T07:09:16.173Z,9.40
2017-11-24T07:11:45.102Z,8.80
2017-11-24T07:14:13.957Z,9.77
2017-11-24T07:16:42.846Z,9.83
2017-11-24T07:19:11.729Z,12.53
2017-11-24T07:21:40.718Z,12.30
2017-11-24T07:24:10.415Z,12.93
2017-11-24T07:26:39.575Z,12.90
2017-11-24T07:29:08.557Z,12.13
2017-11-24T07:31:37.485Z,12.80
2017-11-24T07:34:06.351Z,12.30
2017-11-24T07:36:35.211Z,14.47
2017-11-24T07:39:04.084Z,14.20
2017-11-24T07:41:32.953Z,15.63
2017-11-24T07:44:01.820Z,14.83
2017-11-24T07:46:30.665Z,16.37
2017-11-24T07:48:59.549Z,17.87
2017-11-24T07:51:28.394Z,16.30
2017-11-24T07:53:57.263Z,18.57
2017-11-24T07:56:26.153Z,19.67
2017-11-24T07:58:55.005Z,16.53
2017-11-24T08:01:23.879Z,19.47
2017-11-24T08:03:52.769Z,17.60
2017-11-24T08:06:21.642Z,15.93
2017-11-24T08:08:50.500Z,19.53
2017-11-24T08:11:19.382Z,19.43
2017-11-24T08:13:48.233Z,20.93
2017-11-24T08:16:17.109Z,19.30
2017-11-24T08:18:45.988Z,18.77
2017-11-24T08:21:14.831Z,20.17
2017-11-24T08:23:43.693Z,19.83
2017-11-24T08:26:13.389Z,20.10
2017-11-24T08:28:42.795Z,21.17
2017-11-24T08:31:11.710Z,18.97
2017-11-24T08:33:40.664Z,21.03
2017-11-24T08:36:09.502Z,19.00
2017-11-24T08:38:38.386Z,20.53
2017-11-24T08:41:07.267Z,21.17
2017-11-24T08:43:36.155Z,21.17
2017-11-24T08:46:05.068Z,21.70
2017-11-24T08:48:40.089Z,22.30
2017-11-24T08:51:08.945Z,22.43
2017-11-24T08:53:37.830Z,32.57
2017-11-24T08:56:07.685Z,21.07
2017-11-24T08:58:36.571Z,21.43
2017-11-24T09:01:06.047Z,25.93
2017-11-24T09:03:34.949Z,18.77
2017-11-24T09:06:03.977Z,17.97
2017-11-24T09:08:32.883Z,19.50
2017-11-24T09:11:01.793Z,17.93
2017-11-24T09:13:30.657Z,17.43
2017-11-24T09:15:59.505Z,16.67
2017-11-24T09:18:28.804Z,16.63
2017-11-24T09:20:57.644Z,17.17
2017-11-24T09:23:26.501Z,16.00
2017-11-24T09:25:55.370Z,17.70
2017-11-24T09:28:24.243Z,18.13
2017-11-24T09:30:53.323Z,18.13
2017-11-24T09:33:22.987Z,18.20
2017-11-24T09:35:51.836Z,16.90
2017-11-24T09:38:21.217Z,16.63
2017-11-24T09:40:50.084Z,16.70
2017-11-24T09:43:19.026Z,15.80
2017-11-24T09:45:47.888Z,15.90
2017-11-24T09:48:16.757Z,14.77
2017-11-24T09:50:45.953Z,14.20
2017-11-24T09:53:14.804Z,14.07
2017-11-24T09:55:43.983Z,15.07
2017-11-24T09:58:13.172Z,13.00
2017-11-24T10:00:42.337Z,12.27
2017-11-24T10:03:11.232Z,13.50
2017-11-24T10:05:40.138Z,12.67
2017-11-24T10:08:09.001Z,14.40
2017-11-24T10:10:38.529Z,14.03
2017-11-24T10:13:08.101Z,12.97
2017-11-24T10:15:36.964Z,15.13
2017-11-24T10:18:05.841Z,14.07
2017-11-24T10:20:52.413Z,11.00
2017-11-24T10:23:24.397Z,11.43
2017-11-24T10:25:53.364Z,11.03
2017-11-24T10:28:22.234Z,11.40
2017-11-24T10:30:51.153Z,11.40
2017-11-24T10:33:19.992Z,9.90
2017-11-24T10:35:52.302Z,9.80
2017-11-24T10:38:21.145Z,12.50
2017-11-24T10:40:49.993Z,10.73
2017-11-24T10:43:18.852Z,8.87
2017-11-24T10:45:47.705Z,8.97
2017-11-24T10:48:16.595Z,7.37
2017-11-24T10:50:51.445Z,6.30
2017-11-24T10:53:23.492Z,6.77
2017-11-24T10:55:52.547Z,6.90
2017-11-24T10:58:21.509Z,8.40
2017-11-24T11:00:50.393Z,6.63
2017-11-24T11:03:19.310Z,6.57
2017-11-24T11:05:48.167Z,6.60
2017-11-24T11:08:17.000Z,5.60
2017-11-24T11:10:46.434Z,6.33
2017-11-24T11:13:15.289Z,5.63
2017-11-24T11:15:44.137Z,6.33
2017-11-24T11:18:12.994Z,5.97
2017-11-24T11:20:41.832Z,6.60
2017-11-24T11:23:10.670Z,7.17
2017-11-24T11:25:39.613Z,6.60
2017-11-24T11:28:08.456Z,8.00
2017-11-24T11:30:37.424Z,8.50
2017-11-24T11:33:06.296Z,8.33
2017-11-24T11:35:35.148Z,8.77
2017-11-24T11:38:04.000Z,8.40
2017-11-24T11:40:32.873Z,8.70
2017-11-24T11:43:02.290Z,8.27
2017-11-24T11:45:31.142Z,8.43
2017-11-24T11:48:00.014Z,8.33
2017-11-24T11:50:28.910Z,8.63
2017-11-24T11:52:57.786Z,7.73
2017-11-24T11:55:26.650Z,9.20
2017-11-24T11:57:55.542Z,8.33
2017-11-24T12:00:24.398Z,8.57
2017-11-24T12:02:53.274Z,8.50
2017-11-24T12:05:22.105Z,8.10
2017-11-24T12:07:50.969Z,7.90
2017-11-24T12:10:19.841Z,7.63
2017-11-24T12:12:48.682Z,7.70
2017-11-24T12:15:17.546Z,8.17
2017-11-24T12:17:46.438Z,7.50
2017-11-24T12:20:15.301Z,8.40
2017-11-24T12:22:44.132Z,8.80
2017-11-24T12:25:12.996Z,8.47
2017-11-24T12:27:41.828Z,8.30
2017-11-24T12:30:10.660Z,8.60
2017-11-24T12:32:39.517Z,8.63
2017-11-24T12:35:08.358Z,8.00
2017-11-24T12:37:37.202Z,8.27
2017-11-24T12:40:06.057Z,8.13
2017-11-24T12:42:35.586Z,8.43
2017-11-24T12:45:04.430Z,9.10
2017-11-24T12:47:33.309Z,8.53
2017-11-24T12:50:02.150Z,9.33
2017-11-24T12:52:30.998Z,8.60
2017-11-24T12:54:59.850Z,12.20
2017-11-24T12:57:28.696Z,9.23
2017-11-24T12:59:57.546Z,9.97
2017-11-24T13:02:26.406Z,11.87
2017-11-24T13:04:56.040Z,11.10
2017-11-24T13:07:25.479Z,8.70
2017-11-24T13:09:54.360Z,9.83
2017-11-24T13:12:23.202Z,8.67
2017-11-24T13:14:54.222Z,8.60
2017-11-24T13:17:23.252Z,8.03
2017-11-24T13:19:52.090Z,8.10
2017-11-24T13:22:20.938Z,7.77
2017-11-24T13:24:49.821Z,8.10
2017-11-24T13:27:22.140Z,7.83
2017-11-24T13:29:51.220Z,8.27
2017-11-24T13:32:21.077Z,7.87
2017-11-24T13:34:49.931Z,7.80
2017-11-24T13:37:18.842Z,5.53
2017-11-24T13:39:47.678Z,5.40
2017-11-24T13:42:16.554Z,7.10
2017-11-24T13:44:45.405Z,9.00
2017-11-24T13:47:15.047Z,8.33
2017-11-24T13:49:43.887Z,8.43
2017-11-24T13:52:12.811Z,5.90
2017-11-24T13:54:41.656Z,5.57
2017-11-24T13:57:10.490Z,5.10
2017-11-24T13:59:40.005Z,4.67
2017-11-24T14:02:08.848Z,4.93
2017-11-24T14:04:37.688Z,4.73
2017-11-24T14:07:06.572Z,5.47
2017-11-24T14:09:35.459Z,4.93
2017-11-24T14:12:04.340Z,5.07
2017-11-24T14:14:33.998Z,4.63
2017-11-24T14:17:03.580Z,5.30
2017-11-24T14:19:32.441Z,5.63
2017-11-24T14:22:01.322Z,7.20
2017-11-24T14:24:30.215Z,7.50
2017-11-24T14:26:59.059Z,6.97
2017-11-24T14:29:27.960Z,6.00
2017-11-24T14:31:56.804Z,5.40
2017-11-24T14:34:25.655Z,5.57
2017-11-24T14:36:54.524Z,5.40
2017-11-24T14:39:23.382Z,6.10
2017-11-24T14:41:52.217Z,5.77
2017-11-24T14:44:22.129Z,5.73
2017-11-24T14:46:51.060Z,4.53
2017-11-24T14:49:19.938Z,6.87
2017-11-24T14:51:48.846Z,5.83
2017-11-24T14:54:17.702Z,7.77
2017-11-24T14:56:46.686Z,7.37
2017-11-24T14:59:15.540Z,6.20
2017-11-24T15:01:45.126Z,6.30
2017-11-24T15:04:14.006Z,6.37
2017-11-24T15:06:42.873Z,6.07
2017-11-24T15:09:11.717Z,6.20
2017-11-24T15:11:41.338Z,5.97
2017-11-24T15:14:11.143Z,6.17
2017-11-24T15:16:39.995Z,6.77
2017-11-24T15:19:08.868Z,7.60
2017-11-24T15:21:37.739Z,6.00
2017-11-24T15:24:07.767Z,5.97
2017-11-24T15:26:36.637Z,6.27
2017-11-24T15:29:05.503Z,5.30
2017-11-24T15:31:34.337Z,5.30
2017-11-24T15:34:03.216Z,6.37
2017-11-24T15:36:32.079Z,5.97
2017-11-24T15:39:00.937Z,8.27
2017-11-24T15:41:30.242Z,6.93
2017-11-24T15:43:59.116Z,7.73
2017-11-24T15:46:27.963Z,10.00
2017-11-24T15:48:56.797Z,8.80
2017-11-24T15:51:25.677Z,7.40
2017-11-24T15:53:54.541Z,9.03
2017-11-24T15:56:24.249Z,8.43
2017-11-24T15:58:53.737Z,7.40
2017-11-24T16:01:22.578Z,6.90
2017-11-24T16:03:51.463Z,6.90
2017-11-24T16:06:20.361Z,8.43
2017-11-24T16:08:49.239Z,12.93
2017-11-24T16:11:18.140Z,8.50
2017-11-24T16:13:47.025Z,8.50
2017-11-24T16:16:15.877Z,8.03
2017-11-24T16:18:44.720Z,8.57
2017-11-24T16:21:13.639Z,11.10
2017-11-24T16:23:42.595Z,10.20
2017-11-24T16:26:12.902Z,11.30
2017-11-24T16:28:41.915Z,9.47
2017-11-24T16:31:10.796Z,9.83
2017-11-24T16:33:39.649Z,8.83
2017-11-24T16:36:08.502Z,7.70
2017-11-24T16:38:37.701Z,9.00
2017-11-24T16:41:06.545Z,8.83
2017-11-24T16:43:36.041Z,8.40
2017-11-24T16:46:04.905Z,9.73
2017-11-24T16:48:33.817Z,8.27
2017-11-24T16:51:02.707Z,7.70
2017-11-24T16:53:31.554Z,8.17
2017-11-24T16:56:00.445Z,7.80
2017-11-24T16:58:29.836Z,8.00
2017-11-24T17:00:59.048Z,9.57
2017-11-24T17:03:27.911Z,9.57
2017-11-24T17:05:56.768Z,9.17
2017-11-24T17:08:25.610Z,10.53
2017-11-24T17:10:54.462Z,21.30
2017-11-24T17:13:23.343Z,13.93
2017-11-24T17:15:52.191Z,15.07
2017-11-24T17:18:21.028Z,15.70
2017-11-24T17:20:49.931Z,24.47
2017-11-24T17:23:18.809Z,21.87
2017-11-24T17:25:48.552Z,16.27
2017-11-24T17:28:17.415Z,15.57
2017-11-24T17:30:46.271Z,13.80
2017-11-24T17:33:15.764Z,15.20
2017-11-24T17:35:44.793Z,18.87
2017-11-24T17:38:13.662Z,26.97
2017-11-24T17:40:43.131Z,31.20
2017-11-24T17:43:12.027Z,32.37
2017-11-24T17:45:41.152Z,31.23
2017-11-24T17:48:10.233Z,28.87
2017-11-24T17:50:39.144Z,25.30
2017-11-24T17:53:08.021Z,23.37
2017-11-24T17:55:36.932Z,27.67
2017-11-24T17:58:06.665Z,26.47
2017-11-24T18:00:35.592Z,26.73
2017-11-24T18:03:05.183Z,27.93
2017-11-24T18:05:34.042Z,26.80
2017-11-24T18:08:02.946Z,26.60
2017-11-24T18:10:31.875Z,28.97
2017-11-24T18:13:00.755Z,22.90
2017-11-24T18:15:29.614Z,22.43
2017-11-24T18:17:58.473Z,16.93
2017-11-24T18:20:27.346Z,18.43
2017-11-24T18:22:56.190Z,25.20
2017-11-24T18:25:25.032Z,25.73
2017-11-24T18:27:53.954Z,24.07
2017-11-24T18:30:22.814Z,19.70
2017-11-24T18:32:51.672Z,19.40
2017-11-24T18:35:20.553Z,21.47
2017-11-24T18:37:49.415Z,22.87
2017-11-24T18:40:18.296Z,23.70
2017-11-24T18:42:47.195Z,17.97
2017-11-24T18:45:17.117Z,21.60
2017-11-24T18:47:45.968Z,24.90
2017-11-24T18:50:14.864Z,34.10
2017-11-24T18:52:43.733Z,38.50
2017-11-24T18:55:12.606Z,25.47
2017-11-24T18:57:41.470Z,18.50
2017-11-24T19:00:10.300Z,23.10
2017-11-24T19:02:39.148Z,22.93
2017-11-24T19:05:08.125Z,22.73
2017-11-24T19:07:36.978Z,29.37
2017-11-24T19:10:06.726Z,22.93
2017-11-24T19:12:35.618Z,20.17
2017-11-24T19:15:04.518Z,26.87
2017-11-24T19:17:33.390Z,29.20
2017-11-24T19:20:02.286Z,37.40
2017-11-24T19:22:31.362Z,42.30
2017-11-24T19:25:00.212Z,38.60
2017-11-24T19:27:29.121Z,29.07
2017-11-24T19:29:57.984Z,30.47
2017-11-24T19:32:26.840Z,34.83
2017-11-24T19:34:55.716Z,35.60
2017-11-24T19:37:24.694Z,31.47
2017-11-24T19:39:53.644Z,33.87
2017-11-24T19:42:22.517Z,32.47
2017-11-24T19:44:51.390Z,30.43
2017-11-24T19:47:20.276Z,24.97
2017-11-24T19:49:51.273Z,24.70
2017-11-24T19:52:20.614Z,25.87
2017-11-24T19:54:49.490Z,24.93
2017-11-24T19:57:18.333Z,32.77
2017-11-24T19:59:47.977Z,29.67
2017-11-24T20:02:16.868Z,24.40
2017-11-24T20:04:45.728Z,23.90
2017-11-24T20:07:14.596Z,18.70
2017-11-24T20:09:43.554Z,19.27
2017-11-24T20:12:13.210Z,19.20
2017-11-24T20:14:42.063Z,17.80
2017-11-24T20:17:10.978Z,17.37
2017-11-24T20:19:39.835Z,16.00
2017-11-24T20:22:08.895Z,17.37
2017-11-24T20:24:37.891Z,16.43
2017-11-24T20:27:06.774Z,17.23
2017-11-24T20:29:38.781Z,19.70
2017-11-24T20:32:11.174Z,15.93
2017-11-24T20:34:41.332Z,18.30
2017-11-24T20:37:11.488Z,19.23
2017-11-24T20:39:41.564Z,19.23
2017-11-24T20:42:11.239Z,19.17
2017-11-24T20:44:40.093Z,15.93
2017-11-24T20:47:08.939Z,14.10
2017-11-24T20:49:37.983Z,15.23
2017-11-24T20:52:07.333Z,12.30
2017-11-24T20:54:36.395Z,12.67
2017-11-24T20:57:05.436Z,11.10
2017-11-24T20:59:34.289Z,10.50
2017-11-24T21:02:03.147Z,12.73
2017-11-24T21:04:32.033Z,17.40
2017-11-24T21:07:01.756Z,14.00
2017-11-24T21:09:30.637Z,17.20
2017-11-24T21:11:59.580Z,16.80
2017-11-24T21:14:28.472Z,17.63
2017-11-24T21:16:57.595Z,13.70
2017-11-24T21:19:26.647Z,16.10
2017-11-24T21:21:55.517Z,15.27
2017-11-24T21:24:24.373Z,15.27
2017-11-24T21:26:53.597Z,14.30
2017-11-24T21:29:22.463Z,14.83
2017-11-24T21:31:51.317Z,14.47
2017-11-24T21:34:20.311Z,15.53
2017-11-24T21:36:49.193Z,15.13
2017-11-24T21:39:18.041Z,15.03
2017-11-24T21:41:47.252Z,8.20
2017-11-24T21:44:16.108Z,11.67
2017-11-24T21:46:44.996Z,7.27
2017-11-24T21:49:13.913Z,7.00
2017-11-24T21:51:42.797Z,5.57
2017-11-24T21:54:11.701Z,5.13
2017-11-24T21:56:40.718Z,6.80
2017-11-24T21:59:09.613Z,5.63
2017-11-24T22:01:38.486Z,6.93
2017-11-24T22:04:07.675Z,4.87
2017-11-24T22:06:36.545Z,6.27
2017-11-24T22:09:06.090Z,5.50
2017-11-24T22:11:34.985Z,5.60
2017-11-24T22:14:03.854Z,5.67
2017-11-24T22:16:32.705Z,7.00
2017-11-24T22:19:01.814Z,7.80
2017-11-24T22:21:30.647Z,8.70
2017-11-24T22:23:59.486Z,6.90
2017-11-24T22:26:28.621Z,7.63
2017-11-24T22:28:58.625Z,8.20
2017-11-24T22:31:27.475Z,7.33
2017-11-24T22:33:56.541Z,7.33
2017-11-24T22:36:26.294Z,7.43
2017-11-24T22:38:56.041Z,8.00
2017-11-24T22:41:25.430Z,6.63
2017-11-24T22:43:54.452Z,5.77
2017-11-24T22:46:23.491Z,5.20
2017-11-24T22:48:52.335Z,4.93
2017-11-24T22:51:21.182Z,5.53
2017-11-24T22:53:50.045Z,6.00
2017-11-24T22:56:18.934Z,7.20
2017-11-24T22:58:49.275Z,7.80
2017-11-24T23:01:19.638Z,8.23
2017-11-24T23:03:49.744Z,6.70
2017-11-24T23:06:19.008Z,6.33
2017-11-24T23:08:47.913Z,6.00
2017-11-24T23:11:16.776Z,6.70
2017-11-24T23:13:45.697Z,7.03
2017-11-24T23:16:14.729Z,7.10
2017-11-24T23:18:43.630Z,7.70
2017-11-24T23:21:12.498Z,7.70
2017-11-24T23:23:41.333Z,7.67
2017-11-24T23:26:10.176Z,7.47
2017-11-24T23:28:39.045Z,8.23
2017-11-24T23:31:07.993Z,7.83
2017-11-24T23:33:37.026Z,5.93
2017-11-24T23:36:05.899Z,6.57
2017-11-24T23:38:34.749Z,6.40
2017-11-24T23:41:03.625Z,6.37
2017-11-24T23:43:32.492Z,6.00
2017-11-24T23:46:01.345Z,6.07
2017-11-24T23:48:30.194Z,6.40
2017-11-24T23:50:59.068Z,5.83
2017-11-24T23:53:27.963Z,6.10
2017-11-24T23:55:56.829Z,5.87
2017-11-24T23:58:26.765Z,5.27
